Time;durP1;ratioP1;P1;durP2;ratioP2;P2;SDS_P1;SDS_P2;PMS_P1;PMS_P2;Temp;Humidity;BMP_temperature;BMP_pressure;BME280_temperature;BME280_humidity;BME280_pressure;Samples;Min_cycle;Max_cycle;Signal;HPM_P1;HPM_P2
2022/09/06 00:01:22;;;;;;;;;3.00;3.00;;;;;23.26;58.09;100935.84;5096865;27;45622;-69
2022/09/06 00:03:47;;;;;;;;;4.33;3.00;;;;;23.30;58.02;100963.00;5098778;27;45538;-69
2022/09/06 00:06:16;;;;;;;;;2.67;2.00;;;;;23.29;57.98;100957.56;5097518;27;45750;-69
2022/09/06 00:08:43;;;;;;;;;3.00;3.00;;;;;23.23;58.21;100964.06;5098906;27;45750;-69
2022/09/06 00:11:09;;;;;;;;;4.00;2.33;;;;;23.27;58.08;100967.63;5104635;27;45501;-69
2022/09/06 00:13:34;;;;;;;;;3.33;2.00;;;;;23.26;58.22;100954.91;5111499;27;45810;-69
2022/09/06 00:16:07;;;;;;;;;6.00;4.67;;;;;23.12;58.12;100936.16;5108141;27;45419;-69
2022/09/06 00:18:33;;;;;;;;;5.00;3.33;;;;;23.07;58.42;100946.28;5105422;27;45801;-68
2022/09/06 00:20:58;;;;;;;;;0.33;0.33;;;;;23.19;58.28;100963.22;5112506;27;44991;-68
2022/09/06 00:23:23;;;;;;;;;4.00;4.00;;;;;23.19;58.33;100963.22;5110831;27;45740;-69
2022/09/06 00:25:49;;;;;;;;;5.00;3.50;;;;;23.12;58.26;100955.25;5108072;27;48387;-68
2022/09/06 00:28:14;;;;;;;;;5.67;4.33;;;;;23.16;58.21;100960.59;5107397;27;52993;-68
2022/09/06 00:30:40;;;;;;;;;6.00;3.00;;;;;23.03;58.22;100945.38;5112005;27;45820;-69
2022/09/06 00:33:05;;;;;;;;;4.00;3.33;;;;;23.17;58.41;100975.13;5108193;27;45502;-69
2022/09/06 00:35:31;;;;;;;;;2.00;2.00;;;;;23.15;57.96;100963.34;5103599;27;45878;-68
2022/09/06 00:38:00;;;;;;;;;4.00;4.00;;;;;23.21;58.08;100976.81;5111436;27;45426;-68
2022/09/06 00:40:28;;;;;;;;;4.67;3.00;;;;;23.20;58.19;100964.16;5113405;27;46258;-69
2022/09/06 00:42:54;;;;;;;;;5.00;3.00;;;;;23.20;58.31;100972.31;5115682;27;45518;-68
2022/09/06 00:45:20;;;;;;;;;5.67;3.67;;;;;23.19;58.17;100976.84;5097859;27;45846;-69
2022/09/06 00:47:45;;;;;;;;;4.67;4.67;;;;;23.19;58.28;100974.13;5099521;27;45470;-69
2022/09/06 00:50:14;;;;;;;;;5.00;5.00;;;;;23.21;58.48;100970.47;5100255;27;45664;-68
2022/09/06 00:52:41;;;;;;;;;5.67;4.33;;;;;23.14;58.22;100962.44;5101413;27;46300;-69
2022/09/06 00:55:08;;;;;;;;;6.00;4.00;;;;;23.20;58.44;100966.88;5094123;27;45582;-68
2022/09/06 00:57:33;;;;;;;;;3.00;3.00;;;;;23.17;58.39;100967.81;5101799;27;45455;-69
2022/09/06 01:00:01;;;;;;;;;3.00;3.00;;;;;23.17;58.26;100972.38;5095431;27;45677;-69
2022/09/06 01:02:26;;;;;;;;;4.00;2.00;;;;;23.13;58.35;100968.84;5097967;27;47037;-69
2022/09/06 01:04:53;;;;;;;;;3.67;3.67;;;;;23.09;58.18;100974.38;5099526;27;48823;-67
2022/09/06 01:07:36;;;;;;;;;3.67;3.67;;;;;23.08;58.38;100968.03;5107853;27;44982;-69
2022/09/06 01:10:23;;;;;;;;;4.33;4.00;;;;;23.08;58.47;100967.13;5100174;27;45971;-68
2022/09/06 01:13:16;;;;;;;;;4.00;4.00;;;;;23.07;58.65;100970.81;5103151;27;46295;-68
2022/09/06 01:15:59;;;;;;;;;6.67;6.33;;;;;23.07;58.65;100965.34;5099235;27;46353;-69
2022/09/06 01:18:40;;;;;;;;;3.00;3.00;;;;;23.03;58.69;100966.28;5095900;27;46002;-69
2022/09/06 01:21:33;;;;;;;;;3.33;3.33;;;;;22.99;58.84;100962.75;5097308;27;45609;-68
2022/09/06 01:24:14;;;;;;;;;3.00;3.00;;;;;22.95;59.01;100963.72;5104529;27;46419;-69
2022/09/06 01:27:10;;;;;;;;;6.33;6.00;;;;;22.95;59.04;100967.38;5107035;27;45505;-68
2022/09/06 01:29:57;;;;;;;;;3.00;3.00;;;;;22.94;59.05;100962.84;5095428;27;45873;-68
2022/09/06 01:32:29;;;;;;;;;6.33;4.33;;;;;22.95;58.97;100963.72;5100692;27;46864;-68
2022/09/06 01:35:10;;;;;;;;;3.33;3.33;;;;;22.94;59.24;100962.84;5105434;27;45407;-67
2022/09/06 01:37:36;;;;;;;;;4.00;4.00;;;;;22.92;59.00;100959.25;5102388;27;48165;-69
2022/09/06 01:40:02;;;;;;;;;6.00;5.00;;;;;22.80;59.00;100938.63;5097823;27;45748;-69
2022/09/06 01:42:31;;;;;;;;;4.67;4.00;;;;;22.89;58.79;100961.16;5099726;27;45869;-69
2022/09/06 01:45:06;;;;;;;;;5.67;4.67;;;;;22.91;58.89;100962.91;5091265;27;45781;-68
2022/09/06 01:47:55;;;;;;;;;6.67;4.67;;;;;22.92;58.67;100969.28;5091740;27;45496;-68
2022/09/06 01:50:42;;;;;;;;;7.00;4.00;;;;;22.95;58.58;100963.72;5096035;27;45744;-68
2022/09/06 01:53:43;;;;;;;;;4.00;4.00;;;;;22.57;58.61;100900.97;5098462;27;45701;-68
2022/09/06 01:56:17;;;;;;;;;6.00;4.00;;;;;22.94;58.37;100964.69;5096597;27;46607;-68
2022/09/06 01:59:20;;;;;;;;;5.00;3.67;;;;;22.94;58.41;100960.13;5102405;27;45504;-68
2022/09/06 02:02:16;;;;;;;;;4.67;4.67;;;;;22.96;58.60;100958.25;5107056;27;45785;-68
2022/09/06 02:04:41;;;;;;;;;3.33;3.00;;;;;22.98;58.15;100958.22;5115633;27;45488;-68
2022/09/06 02:07:28;;;;;;;;;5.67;4.33;;;;;22.95;58.23;100948.31;5103331;27;45624;-69
2022/09/06 02:10:06;;;;;;;;;4.33;4.33;;;;;22.94;58.27;100951.94;5095552;27;45673;-67
2022/09/06 02:12:34;;;;;;;;;7.00;5.33;;;;;22.95;57.99;100944.66;5103687;27;45558;-68
2022/09/06 02:15:29;;;;;;;;;6.00;6.00;;;;;22.94;58.35;100938.31;5105919;27;45735;-68
2022/09/06 02:18:30;;;;;;;;;4.33;4.33;;;;;22.94;58.62;100934.72;5105710;27;45894;-68
2022/09/06 02:20:57;;;;;;;;;9.33;6.00;;;;;22.95;58.75;100933.75;5085641;27;45476;-68
2022/09/06 02:23:37;;;;;;;;;3.00;3.00;;;;;22.92;59.18;100939.31;5103536;27;46016;-68
2022/09/06 02:26:08;;;;;;;;;4.00;4.00;;;;;22.84;59.36;100934.00;5119006;27;45283;-68
2022/09/06 02:28:34;;;;;;;;;4.00;4.00;;;;;22.77;59.38;100935.09;5111114;27;45600;-68
2022/09/06 02:31:11;;;;;;;;;5.00;5.00;;;;;22.51;59.61;100903.81;5114312;27;45409;-68
2022/09/06 02:33:38;;;;;;;;;12.00;6.67;;;;;22.86;59.45;100958.50;5098690;27;45569;-68
2022/09/06 02:36:07;;;;;;;;;9.00;7.00;;;;;22.81;59.90;100958.59;5093136;27;46297;-68
2022/09/06 02:38:35;;;;;;;;;5.33;5.33;;;;;22.78;59.94;100950.47;5095292;27;46499;-68
2022/09/06 02:41:02;;;;;;;;;6.00;6.00;;;;;22.71;60.12;100943.38;5097916;27;45320;-67
2022/09/06 02:43:27;;;;;;;;;8.00;6.33;;;;;22.69;60.38;100945.25;5100538;27;45439;-67
2022/09/06 02:45:54;;;;;;;;;5.67;5.00;;;;;22.67;60.62;100939.81;5097793;27;45998;-66
2022/09/06 02:48:19;;;;;;;;;6.00;6.00;;;;;22.61;60.77;100940.81;5097724;27;46044;-68
2022/09/06 02:50:44;;;;;;;;;8.33;6.33;;;;;22.57;61.22;100943.63;5103235;27;45561;-67
2022/09/06 02:53:13;;;;;;;;;8.33;5.67;;;;;22.57;61.15;100950.00;5101708;27;50729;-67
2022/09/06 02:55:38;;;;;;;;;5.00;3.67;;;;;22.56;61.13;100948.19;5113938;27;45433;-68
2022/09/06 02:58:05;;;;;;;;;7.33;6.00;;;;;22.55;61.07;100940.94;5115130;27;45279;-67
2022/09/06 03:00:32;;;;;;;;;7.00;5.00;;;;;22.55;61.14;100943.66;5115919;27;45257;-68
2022/09/06 03:02:57;;;;;;;;;5.00;5.00;;;;;22.56;60.62;100931.84;5115706;27;45317;-67
2022/09/06 03:05:24;;;;;;;;;6.00;5.33;;;;;22.55;61.17;100931.88;5115586;27;45273;-67
2022/09/06 03:07:50;;;;;;;;;6.00;5.33;;;;;22.50;61.44;100944.69;5116865;27;46407;-68
2022/09/06 03:10:15;;;;;;;;;4.33;4.33;;;;;22.47;61.44;100945.63;5127368;27;45075;-68
2022/09/06 03:12:42;;;;;;;;;6.00;5.67;;;;;22.09;61.37;100892.81;5108591;27;45453;-67
2022/09/06 03:15:08;;;;;;;;;7.00;5.00;;;;;22.46;61.55;100949.31;5115877;27;45181;-67
2022/09/06 03:17:34;;;;;;;;;7.67;5.67;;;;;22.42;61.75;100953.94;5115680;27;45976;-68
2022/09/06 03:19:59;;;;;;;;;7.00;5.00;;;;;22.44;61.78;100960.22;5125610;27;45175;-68
2022/09/06 03:22:24;;;;;;;;;5.33;5.33;;;;;22.41;61.62;100960.28;5114590;27;45093;-68
2022/09/06 03:24:50;;;;;;;;;6.67;5.00;;;;;22.42;61.65;100955.72;5113679;27;45366;-66
2022/09/06 03:27:15;;;;;;;;;4.67;4.00;;;;;22.37;61.69;100949.47;5114076;27;53370;-67
2022/09/06 03:29:40;;;;;;;;;5.67;5.67;;;;;22.46;61.71;100960.19;5116631;27;46381;-68
2022/09/06 03:32:05;;;;;;;;;8.00;5.00;;;;;22.44;61.60;100964.78;5117601;27;52578;-67
2022/09/06 03:34:31;;;;;;;;;6.67;6.67;;;;;22.10;61.62;100913.66;5117998;27;45328;-67
2022/09/06 03:36:56;;;;;;;;;6.00;5.00;;;;;22.42;61.41;100972.97;5109970;27;45727;-67
2022/09/06 03:39:21;;;;;;;;;8.67;6.67;;;;;22.02;61.50;100902.91;5113251;27;45693;-67
2022/09/06 03:41:47;;;;;;;;;6.67;5.00;;;;;22.44;61.72;100976.56;5111736;27;52651;-67
2022/09/06 03:44:12;;;;;;;;;4.67;4.67;;;;;22.46;61.25;100984.72;5105341;27;54933;-69
2022/09/06 03:46:38;;;;;;;;;7.33;4.33;;;;;22.44;61.25;100981.13;5107894;27;50813;-68
2022/09/06 03:49:03;;;;;;;;;6.33;5.00;;;;;22.32;61.70;100967.72;5112811;27;45588;-68
2022/09/06 03:51:28;;;;;;;;;6.00;4.67;;;;;22.18;61.63;100944.34;5102062;27;45421;-66
2022/09/06 03:53:54;;;;;;;;;6.00;5.00;;;;;22.47;61.42;100997.38;5101982;27;45599;-67
2022/09/06 03:56:20;;;;;;;;;9.33;5.67;;;;;22.48;61.21;100998.28;5096862;27;45661;-69
2022/09/06 03:58:45;;;;;;;;;5.33;4.33;;;;;22.51;61.36;101009.13;5116289;27;45725;-68
2022/09/06 04:01:11;;;;;;;;;8.33;6.00;;;;;22.49;61.32;101006.44;5103727;27;45805;-69
2022/09/06 04:03:37;;;;;;;;;6.00;6.00;;;;;22.40;61.28;100992.97;5096557;27;45695;-69
2022/09/06 04:06:04;;;;;;;;;2.00;2.00;;;;;22.49;61.15;101005.50;5114187;27;47642;-68
2022/09/06 04:08:30;;;;;;;;;8.33;5.67;;;;;22.48;60.79;101007.34;5107824;27;45297;-67
2022/09/06 04:10:57;;;;;;;;;5.67;5.00;;;;;22.41;60.78;101005.69;5102840;27;45272;-67
2022/09/06 04:13:23;;;;;;;;;9.67;9.00;;;;;22.37;60.92;101003.94;5097552;27;45743;-67
2022/09/06 04:15:49;;;;;;;;;5.33;5.33;;;;;22.41;60.85;101019.28;5098724;27;46013;-68
2022/09/06 04:18:15;;;;;;;;;6.00;6.00;;;;;22.36;60.95;101029.38;5097172;27;46017;-68
2022/09/06 04:20:41;;;;;;;;;7.67;6.00;;;;;22.30;61.47;101026.75;5097214;27;45297;-67
2022/09/06 04:23:07;;;;;;;;;7.33;7.33;;;;;22.30;61.38;101027.63;5113027;27;45487;-68
2022/09/06 04:25:32;;;;;;;;;7.67;6.67;;;;;21.97;61.63;100981.00;5114572;27;45333;-68
2022/09/06 04:27:58;;;;;;;;;6.00;6.00;;;;;22.23;61.34;101031.38;5111251;27;45117;-68
2022/09/06 04:30:23;;;;;;;;;9.00;7.67;;;;;22.24;61.72;101035.88;5106730;27;45743;-67
2022/09/06 04:32:48;;;;;;;;;7.00;5.33;;;;;22.24;61.55;101035.88;5109184;27;45551;-67
2022/09/06 04:35:14;;;;;;;;;8.33;8.00;;;;;22.22;61.41;101029.56;5116706;27;52302;-68
2022/09/06 04:37:39;;;;;;;;;8.00;8.00;;;;;22.20;61.45;101040.47;5107128;27;45548;-67
2022/09/06 04:40:05;;;;;;;;;6.00;4.33;;;;;22.18;61.12;101041.44;5107643;27;45242;-67
2022/09/06 04:42:31;;;;;;;;;4.33;4.33;;;;;22.14;61.83;101039.69;5113025;27;45642;-69
2022/09/06 04:44:56;;;;;;;;;7.00;5.33;;;;;22.13;61.87;101038.78;5112155;27;46978;-68
2022/09/06 04:47:22;;;;;;;;;6.00;5.00;;;;;22.12;61.90;101041.53;5107355;27;56944;-68
2022/09/06 04:49:48;;;;;;;;;7.33;6.00;;;;;22.11;61.62;101050.59;5108051;27;45619;-68
2022/09/06 04:52:14;;;;;;;;;6.67;6.00;;;;;22.08;61.23;101047.03;5111285;27;45121;-68
2022/09/06 04:54:39;;;;;;;;;6.67;6.00;;;;;22.07;60.60;101056.09;5118771;27;46520;-68
2022/09/06 04:57:05;;;;;;;;;5.67;5.67;;;;;21.98;60.13;101045.38;5112386;27;45368;-68
2022/09/06 04:59:31;;;;;;;;;2.00;2.00;;;;;21.99;59.16;101060.81;5104729;27;45457;-68
2022/09/06 05:01:57;;;;;;;;;9.00;7.00;;;;;21.99;59.46;101057.16;5107877;27;45480;-67
2022/09/06 05:04:22;;;;;;;;;4.33;4.33;;;;;21.80;59.76;101040.25;5104472;27;45692;-68
2022/09/06 05:06:48;;;;;;;;;4.33;3.67;;;;;21.74;59.15;101030.34;5112598;27;45463;-68
2022/09/06 05:09:14;;;;;;;;;5.00;4.00;;;;;21.91;59.28;101062.75;5115860;27;45523;-67
2022/09/06 05:11:39;;;;;;;;;4.67;3.00;;;;;21.89;58.81;101062.75;5110181;27;45720;-68
2022/09/06 05:14:04;;;;;;;;;7.33;5.33;;;;;21.85;58.66;101057.38;5112853;27;45364;-67
2022/09/06 05:16:30;;;;;;;;;6.33;5.00;;;;;21.85;58.66;101050.13;5105748;27;48826;-68
2022/09/06 05:18:55;;;;;;;;;5.00;4.00;;;;;21.75;58.54;101034.88;5102961;27;46916;-68
2022/09/06 05:21:21;;;;;;;;;14.33;10.67;;;;;21.87;58.73;101052.81;5112712;27;45541;-69
2022/09/06 05:23:47;;;;;;;;;7.00;5.33;;;;;21.87;58.41;101056.41;5113541;27;46764;-68
2022/09/06 05:26:12;;;;;;;;;5.33;5.33;;;;;21.85;58.30;101054.66;5105301;27;45525;-69
2022/09/06 05:28:37;;;;;;;;;5.33;5.00;;;;;21.89;58.53;101061.84;5114052;27;46008;-69
2022/09/06 05:31:24;;;;;;;;;6.67;4.00;;;;;21.60;58.59;101000.66;5100630;27;45272;-68
2022/09/06 05:33:52;;;;;;;;;5.33;5.33;;;;;21.97;58.65;101059.00;5104961;27;45676;-68
2022/09/06 05:36:17;;;;;;;;;6.67;5.00;;;;;21.99;58.31;101065.31;5119902;27;45330;-67
2022/09/06 05:38:42;;;;;;;;;10.67;8.00;;;;;22.01;58.43;101063.47;5114156;27;45176;-69
2022/09/06 05:41:08;;;;;;;;;6.00;6.00;;;;;21.72;58.07;101011.31;5104222;27;45816;-69
2022/09/06 05:43:33;;;;;;;;;5.33;5.00;;;;;21.92;58.02;101033.72;5116441;27;46258;-69
2022/09/06 05:45:58;;;;;;;;;9.00;7.00;;;;;22.03;58.28;101043.47;5109001;27;58982;-68
2022/09/06 05:48:23;;;;;;;;;5.67;5.33;;;;;22.07;58.26;101052.50;5130286;27;45158;-68
2022/09/06 05:50:59;;;;;;;;;4.00;4.00;;;;;22.10;58.28;101041.56;5095472;27;48564;-69
2022/09/06 05:53:24;;;;;;;;;6.00;4.00;;;;;22.14;58.12;101037.88;5093077;27;45203;-69
2022/09/06 05:55:49;;;;;;;;;7.00;7.00;;;;;22.15;58.21;101041.50;5098981;27;57931;-69
2022/09/06 05:58:15;;;;;;;;;7.00;4.00;;;;;22.16;57.96;101037.81;5097427;27;53753;-69
2022/09/06 06:00:40;;;;;;;;;13.33;6.00;;;;;22.22;58.21;101038.66;5114871;27;53949;-68
2022/09/06 06:03:05;;;;;;;;;6.33;6.00;;;;;22.26;57.95;101045.81;5097706;27;49139;-68
2022/09/06 06:05:31;;;;;;;;;7.33;5.00;;;;;22.32;58.03;101043.94;5101183;27;45506;-67
2022/09/06 06:07:57;;;;;;;;;6.33;6.00;;;;;22.34;57.68;101028.47;5099014;27;45601;-67
2022/09/06 06:10:23;;;;;;;;;8.00;6.33;;;;;22.37;57.60;101031.16;5092031;27;45676;-69
2022/09/06 06:12:48;;;;;;;;;5.67;5.67;;;;;22.41;57.39;101030.19;5107791;27;46012;-69
2022/09/06 06:15:15;;;;;;;;;10.00;7.33;;;;;22.42;57.12;101051.00;5114958;27;45161;-67
2022/09/06 06:17:40;;;;;;;;;8.00;6.67;;;;;22.48;57.14;101037.31;5114973;27;45391;-67
2022/09/06 06:20:06;;;;;;;;;8.00;8.00;;;;;22.51;56.95;101039.97;5108046;27;45099;-68
2022/09/06 06:22:31;;;;;;;;;5.67;5.00;;;;;22.57;57.09;101031.69;5104851;27;47462;-67
2022/09/06 06:24:57;;;;;;;;;8.67;7.00;;;;;22.62;56.41;101029.78;5101689;27;46175;-69
2022/09/06 06:27:22;;;;;;;;;8.33;6.67;;;;;22.69;56.41;101029.66;5106656;27;45477;-68
2022/09/06 06:29:47;;;;;;;;;8.67;4.00;;;;;22.33;56.07;100951.38;5114735;27;45502;-68
2022/09/06 06:32:13;;;;;;;;;8.67;5.00;;;;;22.77;55.85;101016.81;5109320;27;47037;-68
2022/09/06 06:34:38;;;;;;;;;9.33;7.33;;;;;22.79;55.63;101018.53;5108790;27;49114;-69
2022/09/06 06:37:03;;;;;;;;;5.33;5.33;;;;;22.86;55.79;101021.16;5097475;27;45515;-69
2022/09/06 06:39:29;;;;;;;;;5.00;5.00;;;;;22.90;55.70;101017.41;5104459;27;45353;-67
2022/09/06 06:41:54;;;;;;;;;9.00;5.00;;;;;22.90;55.62;101018.34;5110270;27;46204;-68
2022/09/06 06:44:19;;;;;;;;;9.67;7.00;;;;;22.82;55.25;101014.88;5105159;27;45322;-67
2022/09/06 06:46:45;;;;;;;;;9.33;6.00;;;;;22.90;55.24;101020.16;5103718;27;45312;-69
2022/09/06 06:49:10;;;;;;;;;9.67;4.67;;;;;22.96;55.26;101034.53;5102154;27;46438;-68
2022/09/06 06:51:36;;;;;;;;;5.33;5.00;;;;;22.74;55.06;100986.91;5103181;27;45394;-68
2022/09/06 06:54:02;;;;;;;;;4.67;4.67;;;;;22.98;54.95;101029.97;5108421;27;45250;-69
2022/09/06 06:56:31;;;;;;;;;6.00;4.67;;;;;23.08;54.70;101032.53;5101326;27;45520;-69
2022/09/06 06:58:58;;;;;;;;;7.00;7.00;;;;;23.11;54.62;101027.03;5098828;27;45552;-68
2022/09/06 07:01:26;;;;;;;;;5.67;5.67;;;;;23.04;54.16;101003.53;5097660;27;45394;-68
2022/09/06 07:03:52;;;;;;;;;6.67;6.00;;;;;23.15;54.31;101021.47;5108543;27;45427;-68
2022/09/06 07:06:18;;;;;;;;;6.00;4.67;;;;;23.17;54.20;101018.72;5103286;27;45825;-68
2022/09/06 07:08:43;;;;;;;;;5.33;5.33;;;;;23.23;54.24;101023.13;5101889;27;45534;-70
2022/09/06 07:11:11;;;;;;;;;8.00;6.00;;;;;23.24;54.15;101025.81;5101267;27;46195;-69
2022/09/06 07:13:36;;;;;;;;;12.00;8.00;;;;;23.26;53.86;101014.88;5104836;27;45281;-69
2022/09/06 07:16:06;;;;;;;;;6.00;5.00;;;;;23.26;54.00;101013.06;5099640;27;45386;-68
2022/09/06 07:18:31;;;;;;;;;9.00;8.00;;;;;23.30;53.84;101006.63;5102256;27;45510;-69
2022/09/06 07:20:56;;;;;;;;;6.33;5.67;;;;;23.25;53.50;100991.31;5098293;27;55162;-69
2022/09/06 07:23:24;;;;;;;;;5.67;5.67;;;;;23.32;53.38;101010.19;5099259;27;45426;-69
2022/09/06 07:25:49;;;;;;;;;11.67;8.33;;;;;23.30;53.58;101008.47;5097902;27;45624;-68
2022/09/06 07:28:14;;;;;;;;;6.33;5.00;;;;;23.30;53.15;101008.47;5097739;27;44815;-68
2022/09/06 07:30:40;;;;;;;;;7.67;5.67;;;;;23.31;53.40;101015.69;5108500;27;54815;-69
2022/09/06 07:33:06;;;;;;;;;7.00;4.67;;;;;23.33;53.34;101017.47;5101011;27;45490;-69
2022/09/06 07:35:32;;;;;;;;;6.33;5.00;;;;;23.37;53.46;101011.00;5101232;27;45459;-69
2022/09/06 07:37:59;;;;;;;;;7.00;7.00;;;;;23.43;52.95;101011.78;5097296;27;45761;-69
2022/09/06 07:40:27;;;;;;;;;7.33;5.67;;;;;23.52;52.85;101001.56;5103121;27;46160;-68
2022/09/06 07:42:56;;;;;;;;;8.00;6.67;;;;;23.48;52.50;100990.78;5106490;27;45499;-67
2022/09/06 07:45:22;;;;;;;;;6.33;6.33;;;;;23.50;52.07;100999.81;5101300;27;45390;-67
2022/09/06 07:47:55;;;;;;;;;5.33;5.33;;;;;23.61;51.71;101026.81;5104070;27;45268;-68
2022/09/06 07:50:20;;;;;;;;;9.00;8.67;;;;;23.60;51.55;101033.22;5106171;27;45578;-67
2022/09/06 07:52:46;;;;;;;;;5.33;5.33;;;;;23.61;51.67;101035.94;5101483;27;45451;-68
2022/09/06 07:55:11;;;;;;;;;4.00;4.00;;;;;23.57;51.75;101020.53;5099819;27;45627;-68
2022/09/06 07:57:37;;;;;;;;;7.33;6.00;;;;;23.61;50.83;101041.38;5098494;27;45452;-68
2022/09/06 08:00:03;;;;;;;;;3.00;2.67;;;;;23.61;51.07;101046.84;5098499;27;46354;-68
2022/09/06 08:02:30;;;;;;;;;4.00;4.00;;;;;23.60;50.57;101049.59;5096753;27;45402;-68
2022/09/06 08:04:55;;;;;;;;;2.67;2.33;;;;;23.54;50.43;101031.53;5100590;27;45570;-68
2022/09/06 08:07:23;;;;;;;;;6.67;5.67;;;;;23.70;50.52;101054.78;5104591;27;45242;-67
2022/09/06 08:09:48;;;;;;;;;3.00;3.00;;;;;23.76;49.86;101051.03;5104114;27;46994;-68
2022/09/06 08:12:13;;;;;;;;;5.33;3.33;;;;;23.82;50.08;101039.06;5103182;27;45288;-68
2022/09/06 08:14:39;;;;;;;;;4.00;4.00;;;;;23.82;49.59;101037.25;5100663;27;45309;-68
2022/09/06 08:17:04;;;;;;;;;3.67;3.33;;;;;23.87;49.24;101031.69;5103037;27;45427;-69
2022/09/06 08:19:29;;;;;;;;;3.67;3.67;;;;;23.88;48.75;101028.03;5099036;27;45483;-69
2022/09/06 08:21:55;;;;;;;;;5.00;4.67;;;;;23.91;49.38;101031.59;5099541;27;54297;-68
2022/09/06 08:24:20;;;;;;;;;5.00;3.67;;;;;23.91;48.73;101027.97;5097557;27;45464;-68
2022/09/06 08:26:47;;;;;;;;;3.33;3.33;;;;;23.90;48.20;101031.63;5096999;27;45506;-69
2022/09/06 08:29:12;;;;;;;;;5.33;5.00;;;;;24.01;48.32;101035.00;5103534;27;46013;-67
2022/09/06 08:31:40;;;;;;;;;3.00;2.67;;;;;24.25;47.84;101032.56;5101388;27;45303;-68
2022/09/06 08:34:05;;;;;;;;;5.33;4.00;;;;;24.49;46.61;101036.50;5101099;27;45511;-68
2022/09/06 08:36:32;;;;;;;;;1.00;0.00;;;;;24.61;46.27;101027.09;5097168;27;45427;-68
2022/09/06 08:38:59;;;;;;;;;3.67;3.67;;;;;24.70;45.91;101025.94;5111408;27;46348;-68
2022/09/06 08:41:31;;;;;;;;;4.33;2.67;;;;;24.75;45.12;101022.16;5108953;27;45363;-68
2022/09/06 08:44:07;;;;;;;;;6.67;6.67;;;;;24.79;44.21;101017.50;5101385;27;45522;-69
2022/09/06 08:46:40;;;;;;;;;2.67;2.67;;;;;24.84;43.49;101029.19;5100103;27;45547;-67
2022/09/06 08:49:06;;;;;;;;;3.67;3.67;;;;;24.82;43.34;101001.00;5099534;27;45461;-69
2022/09/06 08:51:48;;;;;;;;;3.33;3.33;;;;;24.96;43.61;101011.53;5102681;27;45394;-69
2022/09/06 08:54:50;;;;;;;;;4.00;3.00;;;;;25.02;43.50;101014.09;5098325;27;45510;-68
2022/09/06 08:57:37;;;;;;;;;3.67;3.00;;;;;25.15;43.63;100998.22;5100319;27;45402;-68
2022/09/06 09:00:07;;;;;;;;;3.00;3.00;;;;;25.22;43.87;100990.72;5096537;27;46097;-68
2022/09/06 09:02:48;;;;;;;;;8.67;4.67;;;;;25.31;44.17;100998.66;5096172;27;45416;-69
2022/09/06 09:05:29;;;;;;;;;3.00;3.00;;;;;25.30;43.74;100988.69;5102032;27;45720;-69
2022/09/06 09:08:05;;;;;;;;;2.00;2.00;;;;;25.42;41.68;100999.22;5101432;27;45440;-68
2022/09/06 09:10:41;;;;;;;;;5.00;4.00;;;;;25.48;41.16;100996.31;5103420;27;46488;-69
2022/09/06 09:13:14;;;;;;;;;6.00;2.67;;;;;25.52;41.26;100984.34;5101378;27;45575;-69
2022/09/06 09:15:40;;;;;;;;;3.67;2.00;;;;;25.73;41.05;101012.81;5100065;27;45529;-69
2022/09/06 09:18:05;;;;;;;;;3.67;2.00;;;;;25.78;41.14;101023.63;5108773;27;45547;-68
2022/09/06 09:20:30;;;;;;;;;5.00;3.67;;;;;25.84;41.23;101026.19;5095385;27;46072;-69
2022/09/06 09:22:56;;;;;;;;;4.00;1.33;;;;;25.90;40.32;101027.81;5096882;27;45443;-68
2022/09/06 09:25:23;;;;;;;;;3.00;3.00;;;;;25.96;40.56;101024.03;5097128;27;45384;-69
2022/09/06 09:27:56;;;;;;;;;4.00;1.00;;;;;25.71;39.92;100965.47;5095652;27;45526;-70
2022/09/06 09:30:24;;;;;;;;;4.33;1.00;;;;;26.19;39.74;101023.25;5098470;27;45582;-69
2022/09/06 09:32:50;;;;;;;;;3.00;2.00;;;;;26.30;39.87;101018.28;5100684;27;45381;-68
2022/09/06 09:35:18;;;;;;;;;3.00;3.00;;;;;26.40;40.19;101021.56;5096517;27;45385;-69
2022/09/06 09:37:45;;;;;;;;;4.00;2.00;;;;;26.56;40.42;101039.25;5096035;27;45393;-69
2022/09/06 09:40:16;;;;;;;;;8.00;8.00;;;;;26.63;40.68;101043.63;5094447;27;46518;-69
2022/09/06 09:42:41;;;;;;;;;5.00;5.00;;;;;26.62;40.74;101035.44;5104097;27;45374;-68
2022/09/06 09:45:28;;;;;;;;;8.00;5.67;;;;;26.65;40.61;101040.84;5100464;27;45501;-68
2022/09/06 09:47:54;;;;;;;;;8.00;4.00;;;;;26.68;40.26;101029.75;5104681;27;45387;-68
2022/09/06 09:50:27;;;;;;;;;4.67;4.00;;;;;26.67;40.37;101031.59;5098439;27;45294;-69
2022/09/06 09:52:53;;;;;;;;;7.00;7.00;;;;;26.64;40.40;101023.47;5100642;27;45328;-69
2022/09/06 09:55:26;;;;;;;;;4.67;3.00;;;;;26.58;40.40;101023.69;5097123;27;45581;-69
2022/09/06 09:57:53;;;;;;;;;2.00;2.00;;;;;26.49;40.72;101015.78;5098180;27;45395;-69
2022/09/06 10:01:08;;;;;;;;;7.67;4.00;;;;;26.38;40.87;101018.00;5106290;27;46123;-69
2022/09/06 10:03:33;;;;;;;;;6.00;3.00;;;;;26.31;41.02;101025.53;5092453;27;45402;-69
2022/09/06 10:05:59;;;;;;;;;4.00;4.00;;;;;26.29;41.34;101036.53;5107000;27;45489;-69
2022/09/06 10:08:29;;;;;;;;;4.00;3.67;;;;;26.29;41.91;101038.41;5100258;27;45466;-69
2022/09/06 10:10:55;;;;;;;;;6.33;5.67;;;;;26.31;42.33;101039.25;5099319;27;46446;-68
2022/09/06 10:13:32;;;;;;;;;6.00;5.00;;;;;26.23;42.82;101041.34;5102636;27;45387;-69
2022/09/06 10:15:59;;;;;;;;;7.67;6.00;;;;;26.28;43.41;101045.72;5098870;27;45655;-70
2022/09/06 10:18:30;;;;;;;;;8.33;7.00;;;;;26.24;43.83;101052.25;5101171;27;45475;-69
2022/09/06 10:21:09;;;;;;;;;4.33;4.33;;;;;26.19;43.60;101054.25;5097972;27;45328;-69
2022/09/06 10:23:54;;;;;;;;;6.67;5.00;;;;;26.17;43.73;101045.19;5098129;27;45523;-68
2022/09/06 10:26:29;;;;;;;;;7.00;7.00;;;;;26.25;43.42;101048.56;5095842;27;45420;-70
2022/09/06 10:29:03;;;;;;;;;4.33;3.67;;;;;26.32;43.68;101048.38;5101054;27;45455;-69
2022/09/06 10:31:38;;;;;;;;;10.33;10.00;;;;;26.37;43.74;101047.25;5106769;27;45510;-69
2022/09/06 10:34:18;;;;;;;;;4.67;4.67;;;;;26.38;43.70;101043.56;5099483;27;45448;-69
2022/09/06 10:37:00;;;;;;;;;6.00;6.00;;;;;26.39;43.93;101041.72;5095346;27;45406;-69
2022/09/06 10:39:49;;;;;;;;;10.00;6.00;;;;;26.37;44.18;101027.19;5094589;27;45487;-69
2022/09/06 10:42:32;;;;;;;;;5.67;5.33;;;;;26.38;43.98;101004.31;5107250;27;45501;-69
2022/09/06 10:45:19;;;;;;;;;8.67;5.33;;;;;26.28;44.42;100999.16;5103573;27;46195;-69
2022/09/06 10:47:53;;;;;;;;;6.33;6.33;;;;;26.23;44.73;100989.31;5101803;27;45479;-68
2022/09/06 10:50:21;;;;;;;;;3.67;3.67;;;;;26.13;45.32;100975.03;5099303;27;45487;-68
2022/09/06 10:52:47;;;;;;;;;6.67;4.00;;;;;26.07;45.27;100967.94;5099229;27;45301;-68
2022/09/06 10:55:17;;;;;;;;;6.67;4.00;;;;;25.89;46.29;100952.13;5097414;27;45490;-68
2022/09/06 10:57:56;;;;;;;;;8.33;6.67;;;;;25.86;47.14;100960.44;5096671;27;45515;-68
2022/09/06 11:00:22;;;;;;;;;6.67;6.00;;;;;25.83;46.62;100958.69;5099036;27;45400;-68
2022/09/06 11:03:08;;;;;;;;;6.33;5.33;;;;;25.86;46.97;100975.00;5094448;27;45368;-68
2022/09/06 11:05:42;;;;;;;;;7.33;5.67;;;;;25.84;46.82;100951.38;5099676;27;45537;-68
2022/09/06 11:08:35;;;;;;;;;8.00;7.00;;;;;25.97;46.69;100955.53;5102638;27;45686;-69
2022/09/06 11:11:07;;;;;;;;;11.00;8.00;;;;;25.96;46.32;100950.09;5098051;27;45559;-68
2022/09/06 11:13:32;;;;;;;;;5.67;5.67;;;;;25.90;46.40;100918.31;5106840;27;46183;-69
2022/09/06 11:16:09;;;;;;;;;6.67;4.00;;;;;26.06;46.82;100955.19;5101290;27;46065;-69
2022/09/06 11:18:57;;;;;;;;;9.67;8.67;;;;;26.17;46.50;100957.56;5100608;27;45391;-69
2022/09/06 11:22:00;;;;;;;;;7.33;5.33;;;;;26.25;45.91;100957.28;5100520;27;45244;-69
2022/09/06 11:24:43;;;;;;;;;6.67;6.33;;;;;26.26;45.83;100957.22;5101805;27;45353;-69
2022/09/06 11:27:18;;;;;;;;;7.33;5.00;;;;;26.26;45.63;100949.00;5099025;27;45458;-69
2022/09/06 11:29:47;;;;;;;;;8.33;6.33;;;;;26.25;45.88;100940.84;5097150;27;45483;-69
2022/09/06 11:32:42;;;;;;;;;8.67;6.67;;;;;26.24;45.63;100933.59;5100725;27;45438;-69
2022/09/06 11:35:31;;;;;;;;;9.33;7.33;;;;;26.23;45.65;100923.56;5097573;27;45401;-68
2022/09/06 11:38:14;;;;;;;;;8.00;6.00;;;;;26.23;45.45;100929.03;5097625;27;45362;-69